createdAt,value
2023-05-01T00:00:12.433Z,1018.16
2023-05-01T00:01:12.410Z,1018.15
2023-05-01T00:02:12.461Z,1018.15
2023-05-01T00:03:12.458Z,1018.16
2023-05-01T00:04:12.541Z,1018.16
2023-05-01T00:05:12.451Z,1018.17
2023-05-01T00:06:12.366Z,1018.18
2023-05-01T00:07:12.345Z,1018.17
2023-05-01T00:08:12.322Z,1018.16
2023-05-01T00:09:12.334Z,1018.15
2023-05-01T00:10:14.034Z,1018.14
2023-05-01T00:11:12.303Z,1018.14
2023-05-01T00:12:12.317Z,1018.14
2023-05-01T00:13:15.665Z,1018.14
2023-05-01T00:14:12.271Z,1018.13
2023-05-01T00:15:12.312Z,1018.13
2023-05-01T00:16:12.290Z,1018.12
2023-05-01T00:17:13.257Z,1018.13
2023-05-01T00:18:12.353Z,1018.13
2023-05-01T00:19:12.593Z,1018.13
2023-05-01T00:20:12.716Z,1018.14
2023-05-01T00:21:12.222Z,1018.15
2023-05-01T00:22:12.235Z,1018.14
2023-05-01T00:23:12.742Z,1018.13
2023-05-01T00:24:12.211Z,1018.12
2023-05-01T00:25:12.171Z,1018.11
2023-05-01T00:26:15.785Z,1018.10
2023-05-01T00:27:13.842Z,1018.10
2023-05-01T00:28:13.753Z,1018.08
2023-05-01T00:29:12.153Z,1018.07
2023-05-01T00:30:12.126Z,1018.05
2023-05-01T00:31:12.223Z,1018.04
2023-05-01T00:32:12.163Z,1018.03
2023-05-01T00:33:12.791Z,1018.04
2023-05-01T00:34:12.118Z,1018.04
2023-05-01T00:35:12.069Z,1018.06
2023-05-01T00:36:12.150Z,1018.06
2023-05-01T00:37:12.044Z,1018.04
2023-05-01T00:38:12.063Z,1018.03
2023-05-01T00:39:12.755Z,1018.01
2023-05-01T00:40:14.059Z,1018.00
2023-05-01T00:41:12.033Z,1018.00
2023-05-01T00:42:12.001Z,1017.98
2023-05-01T00:43:12.035Z,1017.97
2023-05-01T00:44:12.798Z,1017.95
2023-05-01T00:45:11.976Z,1017.94
2023-05-01T00:46:12.009Z,1017.93
2023-05-01T00:47:11.964Z,1017.93
2023-05-01T00:48:12.039Z,1017.93
2023-05-01T00:49:11.951Z,1017.92
2023-05-01T00:50:11.988Z,1017.90
2023-05-01T00:51:14.172Z,1017.88
2023-05-01T00:52:11.923Z,1017.86
2023-05-01T00:53:11.959Z,1017.85
2023-05-01T00:54:11.919Z,1017.85
2023-05-01T00:55:11.888Z,1017.85
2023-05-01T00:56:11.867Z,1017.84
2023-05-01T00:57:11.889Z,1017.83
2023-05-01T00:58:11.879Z,1017.82
2023-05-01T00:59:11.854Z,1017.81
2023-05-01T01:00:11.815Z,1017.80
2023-05-01T01:01:11.836Z,1017.79
2023-05-01T01:02:11.880Z,1017.79
2023-05-01T01:03:11.791Z,1017.78
2023-05-01T01:04:12.765Z,1017.77
2023-05-01T01:05:11.759Z,1017.76
2023-05-01T01:06:11.793Z,1017.75
2023-05-01T01:07:13.540Z,1017.74
2023-05-01T01:08:11.767Z,1017.74
2023-05-01T01:09:11.735Z,1017.75
2023-05-01T01:10:11.758Z,1017.75
2023-05-01T01:11:11.718Z,1017.75
2023-05-01T01:12:13.222Z,1017.75
2023-05-01T01:13:12.419Z,1017.75
2023-05-01T01:14:11.718Z,1017.74
2023-05-01T01:15:12.384Z,1017.73
2023-05-01T01:16:11.661Z,1017.73
2023-05-01T01:17:11.763Z,1017.73
2023-05-01T01:18:11.709Z,1017.72
2023-05-01T01:19:11.631Z,1017.72
2023-05-01T01:20:11.611Z,1017.72
2023-05-01T01:21:11.647Z,1017.72
2023-05-01T01:22:11.614Z,1017.73
2023-05-01T01:23:11.571Z,1017.72
2023-05-01T01:24:11.577Z,1017.71
2023-05-01T01:25:11.616Z,1017.70
2023-05-01T01:26:11.590Z,1017.69
2023-05-01T01:27:11.557Z,1017.67
2023-05-01T01:28:11.534Z,1017.66
2023-05-01T01:29:11.531Z,1017.64
2023-05-01T01:30:12.031Z,1017.63
2023-05-01T01:31:11.548Z,1017.61
2023-05-01T01:32:11.529Z,1017.61
2023-05-01T01:33:12.265Z,1017.61
2023-05-01T01:34:11.482Z,1017.61
2023-05-01T01:35:11.453Z,1017.62
2023-05-01T01:36:11.500Z,1017.62
2023-05-01T01:37:11.416Z,1017.62
2023-05-01T01:38:11.421Z,1017.62
2023-05-01T01:39:11.400Z,1017.62
2023-05-01T01:40:11.410Z,1017.61
2023-05-01T01:41:11.415Z,1017.61
2023-05-01T01:42:11.392Z,1017.61
2023-05-01T01:43:11.381Z,1017.62
2023-05-01T01:44:11.374Z,1017.62
2023-05-01T01:45:11.350Z,1017.60
2023-05-01T01:46:11.491Z,1017.57
2023-05-01T01:47:11.352Z,1017.54
2023-05-01T01:48:11.384Z,1017.52
2023-05-01T01:49:13.322Z,1017.52
2023-05-01T01:50:11.341Z,1017.52
2023-05-01T01:51:12.101Z,1017.52
2023-05-01T01:52:11.294Z,1017.50
2023-05-01T01:53:11.276Z,1017.47
2023-05-01T01:54:11.267Z,1017.45
2023-05-01T01:55:11.278Z,1017.44
2023-05-01T01:56:11.273Z,1017.44
2023-05-01T01:57:11.251Z,1017.46
2023-05-01T01:58:11.223Z,1017.44
2023-05-01T01:59:11.229Z,1017.43
2023-05-01T02:00:11.398Z,1017.41
2023-05-01T02:01:11.964Z,1017.41
2023-05-01T02:02:11.383Z,1017.40
2023-05-01T02:03:11.270Z,1017.39
2023-05-01T02:04:12.349Z,1017.38
2023-05-01T02:05:11.201Z,1017.37
2023-05-01T02:06:11.248Z,1017.36
2023-05-01T02:07:11.159Z,1017.34
2023-05-01T02:08:11.137Z,1017.34
2023-05-01T02:09:11.116Z,1017.33
2023-05-01T02:10:11.119Z,1017.33
2023-05-01T02:11:11.100Z,1017.32
2023-05-01T02:12:11.144Z,1017.31
2023-05-01T02:13:11.321Z,1017.31
2023-05-01T02:14:11.064Z,1017.30
2023-05-01T02:15:11.078Z,1017.29
2023-05-01T02:16:11.101Z,1017.30
2023-05-01T02:17:11.050Z,1017.29
2023-05-01T02:18:11.045Z,1017.30
2023-05-01T02:19:11.020Z,1017.29
2023-05-01T02:20:13.215Z,1017.29
2023-05-01T02:21:11.001Z,1017.27
2023-05-01T02:22:11.022Z,1017.26
2023-05-01T02:23:11.575Z,1017.25
2023-05-01T02:24:12.585Z,1017.23
2023-05-01T02:25:10.974Z,1017.21
2023-05-01T02:26:29.952Z,1017.19
2023-05-01T02:27:10.940Z,1017.17
2023-05-01T02:28:12.481Z,1017.15
2023-05-01T02:29:10.948Z,1017.14
2023-05-01T02:30:10.952Z,1017.13
2023-05-01T02:31:10.975Z,1017.12
2023-05-01T02:32:10.892Z,1017.11
2023-05-01T02:33:10.957Z,1017.11
2023-05-01T02:34:10.863Z,1017.09
2023-05-01T02:35:10.841Z,1017.08
2023-05-01T02:36:10.853Z,1017.08
2023-05-01T02:37:11.773Z,1017.07
2023-05-01T02:38:10.857Z,1017.07
2023-05-01T02:39:10.808Z,1017.07
2023-05-01T02:40:10.804Z,1017.06
2023-05-01T02:41:10.788Z,1017.05
2023-05-01T02:42:10.917Z,1017.03
2023-05-01T02:43:10.766Z,1017.02
2023-05-01T02:44:10.765Z,1017.02
2023-05-01T02:45:11.495Z,1017.02
2023-05-01T02:46:11.508Z,1017.00
2023-05-01T02:47:11.688Z,1016.99
2023-05-01T02:48:10.759Z,1016.99
2023-05-01T02:49:10.725Z,1016.98
2023-05-01T02:50:11.396Z,1016.97
2023-05-01T02:51:10.688Z,1016.95
2023-05-01T02:52:11.062Z,1016.94
2023-05-01T02:53:10.694Z,1016.93
2023-05-01T02:54:10.674Z,1016.91
2023-05-01T02:55:12.368Z,1016.89
2023-05-01T02:56:10.651Z,1016.87
2023-05-01T02:57:10.640Z,1016.86
2023-05-01T02:58:10.583Z,1016.86
2023-05-01T02:59:13.685Z,1016.85
2023-05-01T03:00:10.598Z,1016.86
2023-05-01T03:01:10.603Z,1016.86
2023-05-01T03:02:10.533Z,1016.85
2023-05-01T03:03:10.552Z,1016.82
2023-05-01T03:04:10.602Z,1016.79
2023-05-01T03:05:13.010Z,1016.77
2023-05-01T03:06:10.535Z,1016.74
2023-05-01T03:07:12.350Z,1016.73
2023-05-01T03:08:10.491Z,1016.73
2023-05-01T03:09:10.559Z,1016.72
2023-05-01T03:10:11.282Z,1016.70
2023-05-01T03:11:11.278Z,1016.67
2023-05-01T03:12:10.433Z,1016.66
2023-05-01T03:13:10.413Z,1016.65
2023-05-01T03:14:10.432Z,1016.66
2023-05-01T03:15:10.408Z,1016.67
2023-05-01T03:16:10.440Z,1016.66
2023-05-01T03:17:10.368Z,1016.65
2023-05-01T03:18:10.403Z,1016.63
2023-05-01T03:19:10.389Z,1016.62
2023-05-01T03:20:10.406Z,1016.60
2023-05-01T03:21:10.358Z,1016.58
2023-05-01T03:22:10.335Z,1016.58
2023-05-01T03:23:10.299Z,1016.57
2023-05-01T03:24:10.342Z,1016.56
2023-05-01T03:25:13.397Z,1016.54
2023-05-01T03:26:10.285Z,1016.54
2023-05-01T03:27:10.264Z,1016.53
2023-05-01T03:28:10.273Z,1016.52
2023-05-01T03:29:11.199Z,1016.52
2023-05-01T03:30:10.332Z,1016.53
2023-05-01T03:31:10.269Z,1016.52
2023-05-01T03:32:10.973Z,1016.53
2023-05-01T03:33:10.240Z,1016.53
2023-05-01T03:34:10.197Z,1016.52
2023-05-01T03:35:10.219Z,1016.52
2023-05-01T03:36:10.224Z,1016.52
2023-05-01T03:37:10.189Z,1016.52
2023-05-01T03:38:10.372Z,1016.53
2023-05-01T03:39:10.303Z,1016.52
2023-05-01T03:40:10.149Z,1016.51
2023-05-01T03:41:10.165Z,1016.51
2023-05-01T03:42:10.120Z,1016.52
2023-05-01T03:43:10.107Z,1016.54
2023-05-01T03:44:10.127Z,1016.54
2023-05-01T03:45:10.080Z,1016.52
2023-05-01T03:46:10.145Z,1016.51
2023-05-01T03:47:10.062Z,1016.51
2023-05-01T03:48:10.148Z,1016.52
2023-05-01T03:49:10.676Z,1016.53
2023-05-01T03:50:10.421Z,1016.52
2023-05-01T03:51:10.026Z,1016.52
2023-05-01T03:52:10.046Z,1016.51
2023-05-01T03:53:09.999Z,1016.50
2023-05-01T03:54:10.009Z,1016.49
2023-05-01T03:55:10.724Z,1016.50
2023-05-01T03:56:09.984Z,1016.51
2023-05-01T03:57:12.340Z,1016.50
2023-05-01T03:58:09.964Z,1016.50
2023-05-01T03:59:09.948Z,1016.52
2023-05-01T04:00:09.991Z,1016.51
2023-05-01T04:01:09.937Z,1016.51
2023-05-01T04:02:11.528Z,1016.49
2023-05-01T04:03:09.944Z,1016.47
2023-05-01T04:04:09.980Z,1016.47
2023-05-01T04:05:09.883Z,1016.45
2023-05-01T04:06:09.923Z,1016.46
2023-05-01T04:07:09.880Z,1016.48
2023-05-01T04:08:09.895Z,1016.48
2023-05-01T04:09:09.843Z,1016.48
2023-05-01T04:10:09.898Z,1016.47
2023-05-01T04:11:09.832Z,1016.44
2023-05-01T04:12:09.843Z,1016.43
2023-05-01T04:13:10.664Z,1016.44
2023-05-01T04:14:09.814Z,1016.45
2023-05-01T04:15:09.824Z,1016.45
2023-05-01T04:16:09.820Z,1016.45
2023-05-01T04:17:09.768Z,1016.45
2023-05-01T04:18:09.870Z,1016.43
2023-05-01T04:19:11.310Z,1016.41
2023-05-01T04:20:09.745Z,1016.42
2023-05-01T04:21:09.731Z,1016.41
2023-05-01T04:22:09.763Z,1016.41
2023-05-01T05:28:30.362Z,1016.01
2023-05-01T05:29:31.003Z,1015.99
2023-05-01T05:30:31.023Z,1015.97
2023-05-01T05:31:31.025Z,1015.96
2023-05-01T05:32:31.085Z,1015.98
2023-05-01T05:33:30.961Z,1015.95
2023-05-01T05:34:30.967Z,1015.91
2023-05-01T05:35:31.292Z,1015.94
2023-05-01T05:36:30.961Z,1015.90
2023-05-01T05:37:30.941Z,1015.90
2023-05-01T05:38:30.916Z,1015.90
2023-05-01T05:39:30.907Z,1015.91
2023-05-01T05:40:30.907Z,1015.90
2023-05-01T05:41:30.880Z,1015.88
2023-05-01T05:42:30.922Z,1015.90
2023-05-01T05:43:30.868Z,1015.90
2023-05-01T05:44:30.844Z,1015.84
2023-05-01T05:45:33.161Z,1015.83
2023-05-01T05:46:31.696Z,1015.83
2023-05-01T05:47:30.844Z,1015.80
2023-05-01T05:48:31.803Z,1015.83
2023-05-01T05:49:30.797Z,1015.82
2023-05-01T05:50:30.800Z,1015.85
2023-05-01T05:51:30.814Z,1015.81
2023-05-01T05:52:30.791Z,1015.80
2023-05-01T05:53:30.783Z,1015.78
2023-05-01T05:54:30.765Z,1015.78
2023-05-01T05:55:30.750Z,1015.75
2023-05-01T05:56:30.752Z,1015.75
2023-05-01T05:57:32.433Z,1015.75
2023-05-01T05:58:34.823Z,1015.77
2023-05-01T05:59:30.691Z,1015.77
2023-05-01T06:00:30.802Z,1015.75
2023-05-01T06:01:30.685Z,1015.79
2023-05-01T06:02:30.823Z,1015.76
2023-05-01T06:03:30.773Z,1015.78
2023-05-01T06:04:30.684Z,1015.75
2023-05-01T06:05:30.725Z,1015.76
2023-05-01T06:06:30.721Z,1015.76
2023-05-01T06:07:30.646Z,1015.76
2023-05-01T06:08:30.651Z,1015.78
2023-05-01T06:09:30.604Z,1015.75
2023-05-01T06:10:30.680Z,1015.76
2023-05-01T06:11:30.579Z,1015.71
2023-05-01T06:12:30.607Z,1015.70
2023-05-01T06:13:30.568Z,1015.71
2023-05-01T06:14:30.570Z,1015.70
2023-05-01T06:15:30.562Z,1015.72
2023-05-01T06:16:30.623Z,1015.72
2023-05-01T06:17:30.567Z,1015.75
2023-05-01T06:18:30.545Z,1015.75
2023-05-01T06:19:30.501Z,1015.74
2023-05-01T06:20:30.495Z,1015.74
2023-05-01T06:21:30.483Z,1015.71
2023-05-01T06:22:31.834Z,1015.69
2023-05-01T06:23:30.483Z,1015.72
2023-05-01T06:24:30.496Z,1015.70
2023-05-01T06:25:30.441Z,1015.66
2023-05-01T06:26:30.434Z,1015.66
2023-05-01T06:27:30.414Z,1015.69
2023-05-01T06:28:30.424Z,1015.66
2023-05-01T06:29:30.401Z,1015.62
2023-05-01T06:30:30.417Z,1015.63
2023-05-01T06:31:30.434Z,1015.63
2023-05-01T06:32:30.395Z,1015.62
2023-05-01T06:33:30.890Z,1015.60
2023-05-01T06:34:32.925Z,1015.60
2023-05-01T06:35:30.365Z,1015.59
2023-05-01T06:36:30.361Z,1015.56
2023-05-01T06:37:30.502Z,1015.59
2023-05-01T06:38:30.307Z,1015.60
2023-05-01T06:39:30.485Z,1015.61
2023-05-01T06:40:30.287Z,1015.61
2023-05-01T06:41:30.285Z,1015.63
2023-05-01T06:42:30.286Z,1015.61
2023-05-01T06:43:30.254Z,1015.57
2023-05-01T06:44:32.625Z,1015.59
2023-05-01T06:45:30.239Z,1015.55
2023-05-01T06:46:31.305Z,1015.56
2023-05-01T06:47:30.257Z,1015.53
2023-05-01T06:48:30.204Z,1015.52
2023-05-01T06:49:30.622Z,1015.50
2023-05-01T06:50:30.183Z,1015.47
2023-05-01T06:51:30.172Z,1015.50
2023-05-01T06:52:30.233Z,1015.45
2023-05-01T06:53:30.136Z,1015.47
2023-05-01T06:54:30.166Z,1015.44
2023-05-01T06:55:30.135Z,1015.43
2023-05-01T06:56:30.138Z,1015.43
2023-05-01T06:57:30.148Z,1015.43
2023-05-01T06:58:31.750Z,1015.41
2023-05-01T06:59:30.102Z,1015.41
2023-05-01T07:00:30.127Z,1015.35
2023-05-01T07:01:31.166Z,1015.33
2023-05-01T07:02:30.170Z,1015.32
2023-05-01T07:03:30.112Z,1015.29
2023-05-01T07:04:30.049Z,1015.31
2023-05-01T07:05:30.617Z,1015.30
2023-05-01T07:06:30.073Z,1015.31
2023-05-01T07:07:30.025Z,1015.33
2023-05-01T07:08:29.992Z,1015.28
2023-05-01T07:09:29.972Z,1015.28
2023-05-01T07:10:30.844Z,1015.27
2023-05-01T07:11:29.959Z,1015.27
2023-05-01T07:12:29.970Z,1015.27
2023-05-01T07:13:29.924Z,1015.19
2023-05-01T07:14:29.950Z,1015.24
2023-05-01T07:15:29.926Z,1015.25
2023-05-01T07:16:29.960Z,1015.26
2023-05-01T07:17:29.945Z,1015.23
2023-05-01T07:18:29.907Z,1015.25
2023-05-01T07:19:31.426Z,1015.24
2023-05-01T07:20:29.896Z,1015.19
2023-05-01T07:21:29.859Z,1015.17
2023-05-01T07:22:29.846Z,1015.20
2023-05-01T07:23:29.828Z,1015.15
2023-05-01T07:24:31.692Z,1015.14
2023-05-01T07:25:31.781Z,1015.18
2023-05-01T07:26:33.003Z,1015.15
2023-05-01T07:27:29.797Z,1015.12
2023-05-01T07:28:31.357Z,1015.13
2023-05-01T07:29:30.662Z,1015.11
2023-05-01T07:30:31.643Z,1015.08
2023-05-01T07:31:29.785Z,1015.07
2023-05-01T07:32:31.311Z,1015.03
2023-05-01T07:33:29.752Z,1015.03
2023-05-01T07:34:31.382Z,1015.02
2023-05-01T07:35:31.640Z,1014.97
2023-05-01T07:36:30.728Z,1015.00
2023-05-01T07:37:29.692Z,1014.99
2023-05-01T07:38:29.686Z,1014.99
2023-05-01T07:39:30.831Z,1015.00
2023-05-01T07:40:29.679Z,1015.00
2023-05-01T07:41:29.637Z,1014.99
2023-05-01T07:42:29.634Z,1015.00
2023-05-01T07:43:29.616Z,1015.02
2023-05-01T07:44:29.645Z,1015.01
2023-05-01T07:45:29.599Z,1015.02
2023-05-01T07:46:29.981Z,1015.01
2023-05-01T07:47:29.613Z,1015.00
2023-05-01T07:48:29.620Z,1015.00
2023-05-01T07:49:29.576Z,1014.99
2023-05-01T07:50:29.574Z,1015.01
2023-05-01T07:51:30.494Z,1015.01
2023-05-01T07:52:29.546Z,1014.93
2023-05-01T07:53:29.516Z,1014.93
2023-05-01T07:54:29.513Z,1014.89
2023-05-01T07:55:29.548Z,1014.88
2023-05-01T07:56:29.500Z,1014.88
2023-05-01T07:57:29.490Z,1014.93
2023-05-01T07:58:29.477Z,1014.87
2023-05-01T07:59:29.883Z,1014.86
2023-05-01T08:00:29.450Z,1014.84
2023-05-01T08:01:29.464Z,1014.84
2023-05-01T08:02:29.545Z,1014.80
2023-05-01T08:03:29.794Z,1014.78
2023-05-01T08:04:29.533Z,1014.82
2023-05-01T08:05:29.388Z,1014.77
2023-05-01T08:06:29.484Z,1014.76
2023-05-01T08:07:29.360Z,1014.72
2023-05-01T08:08:29.399Z,1014.73
2023-05-01T08:09:29.348Z,1014.71
2023-05-01T08:10:29.337Z,1014.71
2023-05-01T08:11:29.349Z,1014.69
2023-05-01T08:12:29.341Z,1014.68
2023-05-01T08:13:29.361Z,1014.69
2023-05-01T08:14:29.294Z,1014.70
2023-05-01T08:15:29.296Z,1014.68
2023-05-01T08:16:29.312Z,1014.67
2023-05-01T08:17:30.786Z,1014.66
2023-05-01T08:18:29.256Z,1014.62
2023-05-01T08:19:29.287Z,1014.60
2023-05-01T08:20:29.231Z,1014.60
2023-05-01T08:21:29.270Z,1014.60
2023-05-01T08:22:29.232Z,1014.61
2023-05-01T08:23:29.219Z,1014.59
2023-05-01T08:24:29.197Z,1014.56
2023-05-01T08:25:29.217Z,1014.57
2023-05-01T08:26:29.235Z,1014.53
2023-05-01T08:27:29.228Z,1014.59
2023-05-01T08:28:29.167Z,1014.60
2023-05-01T08:29:29.182Z,1014.58
2023-05-01T08:30:29.163Z,1014.55
2023-05-01T08:31:29.169Z,1014.52
2023-05-01T08:32:29.196Z,1014.51
2023-05-01T08:33:29.143Z,1014.50
2023-05-01T08:34:29.107Z,1014.50
2023-05-01T08:35:30.624Z,1014.49
2023-05-01T08:36:29.090Z,1014.48
2023-05-01T08:37:29.114Z,1014.49
2023-05-01T08:38:29.067Z,1014.48
2023-05-01T08:39:29.076Z,1014.46
2023-05-01T08:40:29.033Z,1014.45
2023-05-01T08:41:29.044Z,1014.46
2023-05-01T08:42:30.468Z,1014.46
2023-05-01T08:43:29.049Z,1014.52
2023-05-01T08:44:29.012Z,1014.55
2023-05-01T08:45:31.791Z,1014.50
2023-05-01T08:46:29.072Z,1014.51
2023-05-01T08:47:30.783Z,1014.48
2023-05-01T08:48:28.949Z,1014.45
2023-05-01T08:49:28.955Z,1014.45
2023-05-01T08:50:28.940Z,1014.39
2023-05-01T08:51:28.957Z,1014.48
2023-05-01T08:52:28.914Z,1014.47
2023-05-01T08:53:28.946Z,1014.42
2023-05-01T08:54:28.900Z,1014.39
2023-05-01T08:55:28.904Z,1014.39
2023-05-01T08:56:28.891Z,1014.38
2023-05-01T08:57:28.865Z,1014.37
2023-05-01T08:58:28.847Z,1014.39
2023-05-01T08:59:28.843Z,1014.39
2023-05-01T09:00:28.831Z,1014.33
2023-05-01T09:01:28.942Z,1014.35
2023-05-01T09:02:28.854Z,1014.32
2023-05-01T09:03:28.962Z,1014.31
2023-05-01T09:04:28.784Z,1014.33
2023-05-01T09:05:28.796Z,1014.25
2023-05-01T09:06:28.890Z,1014.25
2023-05-01T09:07:28.762Z,1014.27
2023-05-01T09:08:28.757Z,1014.23
2023-05-01T09:09:28.748Z,1014.21
2023-05-01T09:10:28.745Z,1014.20
2023-05-01T09:11:28.792Z,1014.18
2023-05-01T09:12:28.700Z,1014.19
2023-05-01T09:13:28.703Z,1014.14
2023-05-01T09:14:28.680Z,1014.15
2023-05-01T09:15:28.719Z,1014.07
2023-05-01T09:16:28.728Z,1014.06
2023-05-01T09:17:28.713Z,1014.06
2023-05-01T09:18:28.699Z,1014.04
2023-05-01T09:19:28.645Z,1014.03
2023-05-01T09:20:28.652Z,1013.97
2023-05-01T09:21:28.622Z,1013.94
2023-05-01T09:22:28.608Z,1013.95
2023-05-01T09:23:28.636Z,1013.95
2023-05-01T09:24:28.583Z,1013.93
2023-05-01T09:25:28.596Z,1013.89
2023-05-01T09:26:28.566Z,1013.88
2023-05-01T09:27:28.574Z,1013.91
2023-05-01T09:28:28.563Z,1013.85
2023-05-01T09:29:28.539Z,1013.83
2023-05-01T09:30:28.544Z,1013.88
2023-05-01T09:31:28.770Z,1013.85
2023-05-01T09:32:28.878Z,1013.79
2023-05-01T09:33:28.536Z,1013.77
2023-05-01T09:34:28.488Z,1013.80
2023-05-01T09:35:28.491Z,1013.74
2023-05-01T09:36:28.464Z,1013.76
2023-05-01T09:37:28.552Z,1013.71
2023-05-01T09:38:28.460Z,1013.73
2023-05-01T09:39:28.444Z,1013.68
2023-05-01T09:40:28.425Z,1013.76
2023-05-01T09:41:28.427Z,1013.70
2023-05-01T09:42:28.414Z,1013.67
2023-05-01T09:43:28.517Z,1013.71
2023-05-01T09:44:28.400Z,1013.63
2023-05-01T09:45:30.450Z,1013.62
2023-05-01T09:46:28.381Z,1013.59
2023-05-01T09:47:28.393Z,1013.58
2023-05-01T09:48:28.476Z,1013.59
2023-05-01T09:49:28.334Z,1013.61
2023-05-01T09:50:28.352Z,1013.58
2023-05-01T09:51:28.348Z,1013.55
2023-05-01T09:52:28.309Z,1013.54
2023-05-01T09:53:28.305Z,1013.53
2023-05-01T09:54:28.286Z,1013.48
2023-05-01T09:55:28.310Z,1013.52
2023-05-01T09:56:28.271Z,1013.52
2023-05-01T09:57:28.437Z,1013.55
2023-05-01T09:58:28.273Z,1013.52
2023-05-01T09:59:28.273Z,1013.48
2023-05-01T10:00:28.257Z,1013.46
2023-05-01T10:01:28.347Z,1013.48
2023-05-01T10:02:28.309Z,1013.48
2023-05-01T10:03:28.282Z,1013.43
2023-05-01T10:04:28.189Z,1013.55
2023-05-01T10:05:28.225Z,1013.43
2023-05-01T10:06:28.224Z,1013.38
2023-05-01T10:07:28.185Z,1013.37
2023-05-01T10:08:28.146Z,1013.38
2023-05-01T10:09:28.155Z,1013.41
2023-05-01T10:10:28.150Z,1013.40
2023-05-01T10:11:28.169Z,1013.37
2023-05-01T10:12:28.110Z,1013.44
2023-05-01T10:13:28.112Z,1013.36
2023-05-01T10:14:28.150Z,1013.33
2023-05-01T10:15:28.121Z,1013.32
2023-05-01T10:16:28.097Z,1013.30
2023-05-01T10:17:28.099Z,1013.32
2023-05-01T10:18:29.053Z,1013.29
2023-05-01T10:19:28.046Z,1013.26
2023-05-01T10:20:28.049Z,1013.26
2023-05-01T10:21:28.031Z,1013.28
2023-05-01T10:22:28.017Z,1013.27
2023-05-01T10:23:28.019Z,1013.18
2023-05-01T10:24:28.016Z,1013.14
2023-05-01T10:25:27.989Z,1013.15
2023-05-01T10:26:28.000Z,1013.13
2023-05-01T10:27:27.971Z,1013.17
2023-05-01T10:28:27.946Z,1013.17
2023-05-01T10:29:27.985Z,1013.13
2023-05-01T10:30:27.925Z,1013.16
2023-05-01T10:31:27.973Z,1013.09
2023-05-01T10:32:27.963Z,1013.05
2023-05-01T10:33:27.917Z,1013.07
2023-05-01T10:34:28.505Z,1013.08
2023-05-01T10:35:27.892Z,1013.06
2023-05-01T10:36:27.880Z,1013.10
2023-05-01T10:37:27.858Z,1012.99
2023-05-01T10:38:27.842Z,1013.03
2023-05-01T10:39:27.881Z,1012.95
2023-05-01T10:40:27.855Z,1013.01
2023-05-01T10:41:27.824Z,1012.96
2023-05-01T10:42:27.812Z,1012.89
2023-05-01T10:43:27.959Z,1012.90
2023-05-01T10:44:27.792Z,1012.86
2023-05-01T10:45:27.799Z,1012.87
2023-05-01T10:46:27.802Z,1012.91
2023-05-01T10:47:27.862Z,1012.91
2023-05-01T10:48:27.744Z,1012.85
2023-05-01T10:49:27.746Z,1012.84
2023-05-01T10:50:27.751Z,1012.79
2023-05-01T10:51:28.394Z,1012.85
2023-05-01T10:52:27.700Z,1012.89
2023-05-01T10:53:27.699Z,1012.84
2023-05-01T10:54:27.704Z,1012.78
2023-05-01T10:55:27.694Z,1012.80
2023-05-01T10:56:27.676Z,1012.78
2023-05-01T10:57:28.552Z,1012.77
2023-05-01T10:58:27.642Z,1012.80
2023-05-01T10:59:27.895Z,1012.75
2023-05-01T11:00:27.604Z,1012.72
2023-05-01T11:01:27.713Z,1012.73
2023-05-01T11:02:27.673Z,1012.75
2023-05-01T11:03:27.590Z,1012.75
2023-05-01T11:04:27.615Z,1012.74
2023-05-01T11:05:38.053Z,1012.74
2023-05-01T11:06:29.405Z,1012.72
2023-05-01T11:07:27.569Z,1012.66
2023-05-01T11:08:27.600Z,1012.63
2023-05-01T11:09:27.570Z,1012.60
2023-05-01T11:10:27.547Z,1012.59
2023-05-01T11:11:27.515Z,1012.57
2023-05-01T11:12:27.501Z,1012.53
2023-05-01T11:13:27.493Z,1012.54
2023-05-01T11:14:27.502Z,1012.67
2023-05-01T11:15:27.505Z,1012.52
2023-05-01T11:16:27.524Z,1012.49
2023-05-01T11:17:27.497Z,1012.55
2023-05-01T11:18:27.454Z,1012.53
2023-05-01T11:20:27.413Z,1012.50
2023-05-01T11:21:27.419Z,1012.49
2023-05-01T11:22:27.402Z,1012.46
2023-05-01T11:23:28.128Z,1012.46
2023-05-01T11:24:27.412Z,1012.42
2023-05-01T11:25:28.027Z,1012.41
2023-05-01T11:26:27.361Z,1012.36
2023-05-01T11:27:27.380Z,1012.33
2023-05-01T11:28:27.338Z,1012.30
2023-05-01T11:29:27.320Z,1012.35
2023-05-01T11:30:27.321Z,1012.33
2023-05-01T11:31:27.318Z,1012.35
2023-05-01T11:32:27.387Z,1012.40
2023-05-01T11:33:27.295Z,1012.35
2023-05-01T11:34:27.340Z,1012.36
2023-05-01T11:35:27.272Z,1012.32
2023-05-01T11:36:27.274Z,1012.31
2023-05-01T11:37:27.252Z,1012.31
2023-05-01T11:38:27.241Z,1012.25
2023-05-01T11:39:27.267Z,1012.27
2023-05-01T11:40:27.201Z,1012.30
2023-05-01T11:41:27.246Z,1012.26
2023-05-01T11:42:27.217Z,1012.22
2023-05-01T11:43:28.011Z,1012.18
2023-05-01T11:44:27.187Z,1012.19
2023-05-01T11:45:27.175Z,1012.16
2023-05-01T11:46:27.242Z,1012.16
2023-05-01T11:47:27.242Z,1012.12
2023-05-01T11:48:27.179Z,1012.09
2023-05-01T11:49:27.155Z,1012.08
2023-05-01T11:50:27.109Z,1012.08
2023-05-01T11:51:27.119Z,1012.07
2023-05-01T11:52:27.083Z,1012.07
2023-05-01T11:53:27.095Z,1012.03
2023-05-01T11:54:27.096Z,1011.97
2023-05-01T11:55:27.048Z,1011.99
2023-05-01T11:56:27.682Z,1011.96
2023-05-01T11:57:27.044Z,1011.95
2023-05-01T11:58:27.028Z,1011.96
2023-05-01T11:59:27.044Z,1011.95
2023-05-01T12:00:27.004Z,1011.97
2023-05-01T12:01:27.029Z,1011.94
2023-05-01T12:02:27.050Z,1011.90
2023-05-01T12:03:27.454Z,1011.89
2023-05-01T12:04:29.628Z,1011.93
2023-05-01T12:05:26.972Z,1011.86
2023-05-01T12:06:26.959Z,1011.83
2023-05-01T12:07:26.962Z,1011.86
2023-05-01T12:08:26.945Z,1011.81
2023-05-01T12:09:26.985Z,1011.85
2023-05-01T12:10:26.908Z,1011.86
2023-05-01T12:11:26.910Z,1011.81
2023-05-01T12:12:26.918Z,1011.84
2023-05-01T12:13:27.039Z,1011.81
2023-05-01T12:14:26.865Z,1011.77
2023-05-01T12:15:26.877Z,1011.78
2023-05-01T12:16:26.895Z,1011.78
2023-05-01T12:17:26.943Z,1011.73
2023-05-01T12:18:26.882Z,1011.69
2023-05-01T12:19:26.829Z,1011.68
2023-05-01T12:20:26.805Z,1011.65
2023-05-01T12:21:26.811Z,1011.56
2023-05-01T12:22:26.843Z,1011.65
2023-05-01T12:23:26.780Z,1011.60
2023-05-01T12:24:26.764Z,1011.55
2023-05-01T12:25:26.765Z,1011.52
2023-05-01T12:26:26.758Z,1011.55
2023-05-01T12:27:26.802Z,1011.54
2023-05-01T12:28:27.565Z,1011.52
2023-05-01T12:29:26.719Z,1011.50
2023-05-01T12:30:26.717Z,1011.44
2023-05-01T12:31:26.741Z,1011.47
2023-05-01T12:32:28.567Z,1011.43
2023-05-01T12:33:26.681Z,1011.42
2023-05-01T12:34:26.664Z,1011.42
2023-05-01T12:35:26.686Z,1011.44
2023-05-01T12:36:28.308Z,1011.44
2023-05-01T12:37:26.625Z,1011.44
2023-05-01T12:38:26.658Z,1011.42
2023-05-01T12:39:28.291Z,1011.37
2023-05-01T12:40:28.266Z,1011.36
2023-05-01T12:41:26.596Z,1011.31
2023-05-01T12:42:26.605Z,1011.31
2023-05-01T12:43:26.606Z,1011.29
2023-05-01T12:44:27.369Z,1011.29
2023-05-01T12:45:27.098Z,1011.26
2023-05-01T12:46:31.420Z,1011.34
2023-05-01T12:47:28.119Z,1011.23
2023-05-01T12:48:28.136Z,1011.24
2023-05-01T12:49:26.507Z,1011.23
2023-05-01T12:50:28.056Z,1011.21
2023-05-01T12:51:28.096Z,1011.19
2023-05-01T12:52:28.109Z,1011.17
2023-05-01T12:53:26.497Z,1011.16
2023-05-01T12:54:26.466Z,1011.13
2023-05-01T12:55:26.461Z,1011.15
2023-05-01T12:56:26.444Z,1011.20
2023-05-01T12:57:26.439Z,1011.13
2023-05-01T12:58:26.420Z,1011.12
2023-05-01T12:59:26.414Z,1011.10
2023-05-01T13:00:26.438Z,1011.14
2023-05-01T13:01:26.391Z,1011.13
2023-05-01T13:02:26.580Z,1011.18
2023-05-01T13:03:26.470Z,1011.11
2023-05-01T13:04:26.430Z,1011.14
2023-05-01T13:05:26.341Z,1011.14
2023-05-01T13:06:29.413Z,1011.16
2023-05-01T13:07:26.345Z,1011.18
2023-05-01T13:08:26.327Z,1011.13
2023-05-01T13:09:26.296Z,1011.15
2023-05-01T13:10:26.298Z,1011.10
2023-05-01T13:11:27.054Z,1011.07